sensor_id;sensor_type;location;lat;lon;timestamp;P1;durP1;ratioP1;P2;durP2;ratioP2
49460;SDS011;35355;49.198;-0.368;2023-02-11T00:00:29;17.50;;;8.45;;
49460;SDS011;35355;49.198;-0.368;2023-02-11T00:02:54;19.15;;;10.13;;
49460;SDS011;35355;49.198;-0.368;2023-02-11T00:05:20;19.67;;;9.23;;
49460;SDS011;35355;49.198;-0.368;2023-02-11T00:07:45;15.57;;;8.65;;
49460;SDS011;35355;49.198;-0.368;2023-02-11T00:10:11;17.48;;;8.60;;
49460;SDS011;35355;49.198;-0.368;2023-02-11T00:12:37;17.85;;;9.13;;
49460;SDS011;35355;49.198;-0.368;2023-02-11T00:15:03;16.13;;;9.25;;
49460;SDS011;35355;49.198;-0.368;2023-02-11T00:17:30;19.15;;;9.63;;
49460;SDS011;35355;49.198;-0.368;2023-02-11T00:19:56;18.45;;;8.77;;
49460;SDS011;35355;49.198;-0.368;2023-02-11T00:22:22;18.10;;;8.65;;
49460;SDS011;35355;49.198;-0.368;2023-02-11T00:24:47;14.02;;;7.38;;
49460;SDS011;35355;49.198;-0.368;2023-02-11T00:27:13;13.57;;;7.25;;
49460;SDS011;35355;49.198;-0.368;2023-02-11T00:29:38;19.05;;;8.25;;
49460;SDS011;35355;49.198;-0.368;2023-02-11T00:32:04;17.27;;;7.65;;
49460;SDS011;35355;49.198;-0.368;2023-02-11T00:34:31;13.43;;;7.55;;
49460;SDS011;35355;49.198;-0.368;2023-02-11T00:36:56;16.70;;;8.38;;
49460;SDS011;35355;49.198;-0.368;2023-02-11T00:39:22;17.50;;;9.18;;
49460;SDS011;35355;49.198;-0.368;2023-02-11T00:41:47;14.38;;;7.80;;
49460;SDS011;35355;49.198;-0.368;2023-02-11T00:44:13;16.15;;;8.20;;
49460;SDS011;35355;49.198;-0.368;2023-02-11T00:46:38;14.70;;;7.93;;
49460;SDS011;35355;49.198;-0.368;2023-02-11T00:49:03;17.25;;;8.95;;
49460;SDS011;35355;49.198;-0.368;2023-02-11T00:51:29;17.23;;;9.20;;
49460;SDS011;35355;49.198;-0.368;2023-02-11T00:53:55;15.57;;;9.10;;
49460;SDS011;35355;49.198;-0.368;2023-02-11T00:56:20;16.50;;;8.15;;
49460;SDS011;35355;49.198;-0.368;2023-02-11T00:58:46;16.20;;;8.70;;
49460;SDS011;35355;49.198;-0.368;2023-02-11T01:01:12;20.00;;;9.50;;
49460;SDS011;35355;49.198;-0.368;2023-02-11T01:03:37;16.90;;;8.38;;
49460;SDS011;35355;49.198;-0.368;2023-02-11T01:06:04;19.77;;;10.45;;
49460;SDS011;35355;49.198;-0.368;2023-02-11T01:08:30;22.77;;;10.13;;
49460;SDS011;35355;49.198;-0.368;2023-02-11T01:10:56;21.60;;;11.23;;
49460;SDS011;35355;49.198;-0.368;2023-02-11T01:13:23;17.35;;;9.35;;
49460;SDS011;35355;49.198;-0.368;2023-02-11T01:15:49;20.35;;;10.98;;
49460;SDS011;35355;49.198;-0.368;2023-02-11T01:18:15;18.73;;;9.18;;
49460;SDS011;35355;49.198;-0.368;2023-02-11T01:20:40;21.25;;;10.43;;
49460;SDS011;35355;49.198;-0.368;2023-02-11T01:23:05;23.17;;;10.93;;
49460;SDS011;35355;49.198;-0.368;2023-02-11T01:25:31;17.45;;;10.00;;
49460;SDS011;35355;49.198;-0.368;2023-02-11T01:27:56;18.83;;;9.75;;
49460;SDS011;35355;49.198;-0.368;2023-02-11T01:30:21;24.25;;;10.93;;
49460;SDS011;35355;49.198;-0.368;2023-02-11T01:32:47;17.00;;;9.38;;
49460;SDS011;35355;49.198;-0.368;2023-02-11T01:35:12;20.98;;;10.50;;
49460;SDS011;35355;49.198;-0.368;2023-02-11T01:37:37;22.23;;;10.27;;
49460;SDS011;35355;49.198;-0.368;2023-02-11T01:40:04;19.02;;;9.68;;
49460;SDS011;35355;49.198;-0.368;2023-02-11T01:42:31;18.45;;;9.68;;
49460;SDS011;35355;49.198;-0.368;2023-02-11T01:44:59;20.50;;;10.73;;
49460;SDS011;35355;49.198;-0.368;2023-02-11T01:47:45;22.33;;;11.82;;
49460;SDS011;35355;49.198;-0.368;2023-02-11T01:50:10;18.00;;;9.75;;
49460;SDS011;35355;49.198;-0.368;2023-02-11T01:52:36;20.85;;;10.48;;
49460;SDS011;35355;49.198;-0.368;2023-02-11T01:55:06;19.77;;;11.45;;
49460;SDS011;35355;49.198;-0.368;2023-02-11T01:57:53;18.55;;;9.30;;
49460;SDS011;35355;49.198;-0.368;2023-02-11T02:00:33;16.27;;;9.07;;
49460;SDS011;35355;49.198;-0.368;2023-02-11T02:03:05;19.88;;;8.68;;
49460;SDS011;35355;49.198;-0.368;2023-02-11T02:05:56;18.88;;;9.00;;
49460;SDS011;35355;49.198;-0.368;2023-02-11T02:11:14;13.90;;;7.47;;
49460;SDS011;35355;49.198;-0.368;2023-02-11T02:13:39;15.57;;;8.43;;
49460;SDS011;35355;49.198;-0.368;2023-02-11T02:16:06;18.30;;;8.38;;
49460;SDS011;35355;49.198;-0.368;2023-02-11T02:29:56;25.83;;;9.88;;
49460;SDS011;35355;49.198;-0.368;2023-02-11T02:41:00;20.90;;;9.43;;
49460;SDS011;35355;49.198;-0.368;2023-02-11T02:43:30;21.60;;;10.13;;
49460;SDS011;35355;49.198;-0.368;2023-02-11T02:48:39;17.70;;;9.50;;
49460;SDS011;35355;49.198;-0.368;2023-02-11T02:51:09;24.75;;;10.40;;
49460;SDS011;35355;49.198;-0.368;2023-02-11T03:08:09;19.42;;;11.02;;
49460;SDS011;35355;49.198;-0.368;2023-02-11T03:10:41;19.92;;;9.77;;
49460;SDS011;35355;49.198;-0.368;2023-02-11T03:13:09;20.90;;;10.35;;
49460;SDS011;35355;49.198;-0.368;2023-02-11T03:15:37;16.38;;;9.50;;
49460;SDS011;35355;49.198;-0.368;2023-02-11T03:18:08;22.73;;;11.50;;
49460;SDS011;35355;49.198;-0.368;2023-02-11T03:20:37;19.90;;;10.65;;
49460;SDS011;35355;49.198;-0.368;2023-02-11T03:23:13;19.45;;;10.15;;
49460;SDS011;35355;49.198;-0.368;2023-02-11T03:25:44;20.13;;;9.50;;
49460;SDS011;35355;49.198;-0.368;2023-02-11T03:36:40;16.00;;;7.28;;
49460;SDS011;35355;49.198;-0.368;2023-02-11T03:39:15;15.68;;;8.15;;
49460;SDS011;35355;49.198;-0.368;2023-02-11T03:41:45;13.38;;;7.20;;
49460;SDS011;35355;49.198;-0.368;2023-02-11T03:44:12;14.68;;;7.75;;
49460;SDS011;35355;49.198;-0.368;2023-02-11T03:46:41;13.00;;;7.15;;
49460;SDS011;35355;49.198;-0.368;2023-02-11T03:49:12;14.60;;;7.68;;
49460;SDS011;35355;49.198;-0.368;2023-02-11T03:51:41;16.88;;;8.50;;
49460;SDS011;35355;49.198;-0.368;2023-02-11T03:54:08;12.60;;;7.38;;
49460;SDS011;35355;49.198;-0.368;2023-02-11T03:56:39;13.70;;;7.38;;
49460;SDS011;35355;49.198;-0.368;2023-02-11T03:59:10;17.08;;;7.88;;
49460;SDS011;35355;49.198;-0.368;2023-02-11T04:01:36;12.70;;;7.00;;
49460;SDS011;35355;49.198;-0.368;2023-02-11T04:04:01;12.18;;;6.95;;
49460;SDS011;35355;49.198;-0.368;2023-02-11T04:06:27;16.95;;;7.85;;
49460;SDS011;35355;49.198;-0.368;2023-02-11T04:08:52;14.32;;;7.78;;
49460;SDS011;35355;49.198;-0.368;2023-02-11T04:11:18;11.63;;;7.20;;
49460;SDS011;35355;49.198;-0.368;2023-02-11T04:13:43;15.20;;;7.70;;
49460;SDS011;35355;49.198;-0.368;2023-02-11T04:16:08;14.65;;;7.30;;
49460;SDS011;35355;49.198;-0.368;2023-02-11T04:18:34;17.38;;;7.47;;
49460;SDS011;35355;49.198;-0.368;2023-02-11T04:20:59;23.33;;;7.85;;
49460;SDS011;35355;49.198;-0.368;2023-02-11T04:23:24;25.25;;;9.80;;
49460;SDS011;35355;49.198;-0.368;2023-02-11T04:25:50;27.40;;;9.48;;
49460;SDS011;35355;49.198;-0.368;2023-02-11T04:28:15;34.28;;;11.80;;
49460;SDS011;35355;49.198;-0.368;2023-02-11T04:30:40;36.13;;;11.57;;
49460;SDS011;35355;49.198;-0.368;2023-02-11T04:33:06;32.03;;;10.27;;
49460;SDS011;35355;49.198;-0.368;2023-02-11T04:35:31;28.25;;;9.82;;
49460;SDS011;35355;49.198;-0.368;2023-02-11T04:37:57;41.17;;;10.52;;
49460;SDS011;35355;49.198;-0.368;2023-02-11T04:40:22;38.33;;;11.70;;
49460;SDS011;35355;49.198;-0.368;2023-02-11T04:42:47;34.28;;;12.13;;
49460;SDS011;35355;49.198;-0.368;2023-02-11T04:45:13;34.85;;;10.43;;
49460;SDS011;35355;49.198;-0.368;2023-02-11T04:47:38;31.23;;;11.65;;
49460;SDS011;35355;49.198;-0.368;2023-02-11T04:50:04;36.83;;;11.52;;
49460;SDS011;35355;49.198;-0.368;2023-02-11T04:52:29;41.20;;;11.55;;
49460;SDS011;35355;49.198;-0.368;2023-02-11T04:54:55;40.53;;;11.98;;
49460;SDS011;35355;49.198;-0.368;2023-02-11T04:57:20;46.40;;;12.80;;
49460;SDS011;35355;49.198;-0.368;2023-02-11T04:59:45;45.65;;;12.93;;
49460;SDS011;35355;49.198;-0.368;2023-02-11T05:02:11;35.35;;;11.65;;
49460;SDS011;35355;49.198;-0.368;2023-02-11T05:04:36;41.65;;;14.93;;
49460;SDS011;35355;49.198;-0.368;2023-02-11T05:07:01;46.90;;;13.35;;
49460;SDS011;35355;49.198;-0.368;2023-02-11T05:09:27;48.00;;;13.68;;
49460;SDS011;35355;49.198;-0.368;2023-02-11T05:11:52;39.13;;;12.40;;
49460;SDS011;35355;49.198;-0.368;2023-02-11T05:14:18;49.90;;;13.52;;
49460;SDS011;35355;49.198;-0.368;2023-02-11T05:16:43;53.78;;;13.68;;
49460;SDS011;35355;49.198;-0.368;2023-02-11T05:19:08;42.78;;;14.00;;
49460;SDS011;35355;49.198;-0.368;2023-02-11T05:21:34;44.83;;;13.68;;
49460;SDS011;35355;49.198;-0.368;2023-02-11T05:23:59;51.05;;;14.45;;
49460;SDS011;35355;49.198;-0.368;2023-02-11T05:26:25;43.97;;;13.43;;
49460;SDS011;35355;49.198;-0.368;2023-02-11T05:28:50;59.05;;;13.75;;
49460;SDS011;35355;49.198;-0.368;2023-02-11T05:52:46;29.40;;;11.27;;
49460;SDS011;35355;49.198;-0.368;2023-02-11T05:55:12;43.45;;;12.38;;
49460;SDS011;35355;49.198;-0.368;2023-02-11T05:57:37;30.27;;;11.38;;
49460;SDS011;35355;49.198;-0.368;2023-02-11T06:00:03;31.75;;;10.77;;
49460;SDS011;35355;49.198;-0.368;2023-02-11T06:02:30;39.40;;;13.65;;
49460;SDS011;35355;49.198;-0.368;2023-02-11T06:04:55;33.53;;;12.82;;
49460;SDS011;35355;49.198;-0.368;2023-02-11T06:07:20;30.67;;;11.20;;
49460;SDS011;35355;49.198;-0.368;2023-02-11T06:09:46;32.28;;;11.77;;
49460;SDS011;35355;49.198;-0.368;2023-02-11T06:12:11;36.42;;;12.52;;
49460;SDS011;35355;49.198;-0.368;2023-02-11T06:14:37;31.15;;;11.70;;
49460;SDS011;35355;49.198;-0.368;2023-02-11T06:17:02;40.55;;;12.00;;
49460;SDS011;35355;49.198;-0.368;2023-02-11T06:19:28;34.22;;;12.60;;
49460;SDS011;35355;49.198;-0.368;2023-02-11T06:21:54;28.98;;;10.75;;
49460;SDS011;35355;49.198;-0.368;2023-02-11T06:24:20;23.38;;;10.45;;
49460;SDS011;35355;49.198;-0.368;2023-02-11T06:26:45;31.73;;;10.32;;
49460;SDS011;35355;49.198;-0.368;2023-02-11T06:29:10;20.38;;;8.82;;
49460;SDS011;35355;49.198;-0.368;2023-02-11T06:31:37;21.00;;;10.00;;
49460;SDS011;35355;49.198;-0.368;2023-02-11T06:34:03;24.08;;;9.65;;
49460;SDS011;35355;49.198;-0.368;2023-02-11T06:36:29;21.02;;;9.60;;
49460;SDS011;35355;49.198;-0.368;2023-02-11T06:38:54;18.80;;;8.20;;
49460;SDS011;35355;49.198;-0.368;2023-02-11T06:41:20;26.30;;;9.88;;
49460;SDS011;35355;49.198;-0.368;2023-02-11T06:43:47;18.98;;;8.52;;
49460;SDS011;35355;49.198;-0.368;2023-02-11T06:46:13;21.95;;;8.63;;
49460;SDS011;35355;49.198;-0.368;2023-02-11T06:48:39;16.67;;;7.50;;
49460;SDS011;35355;49.198;-0.368;2023-02-11T06:51:06;17.42;;;8.13;;
49460;SDS011;35355;49.198;-0.368;2023-02-11T06:53:34;15.85;;;7.80;;
49460;SDS011;35355;49.198;-0.368;2023-02-11T06:56:05;18.45;;;7.05;;
49460;SDS011;35355;49.198;-0.368;2023-02-11T06:58:33;17.90;;;8.00;;
49460;SDS011;35355;49.198;-0.368;2023-02-11T07:00:58;20.80;;;7.70;;
49460;SDS011;35355;49.198;-0.368;2023-02-11T07:03:24;16.00;;;7.60;;
49460;SDS011;35355;49.198;-0.368;2023-02-11T07:05:50;16.77;;;8.13;;
49460;SDS011;35355;49.198;-0.368;2023-02-11T07:08:16;14.48;;;7.22;;
49460;SDS011;35355;49.198;-0.368;2023-02-11T07:10:41;17.67;;;6.93;;
49460;SDS011;35355;49.198;-0.368;2023-02-11T07:13:07;15.85;;;7.88;;
49460;SDS011;35355;49.198;-0.368;2023-02-11T07:15:32;16.23;;;7.15;;
49460;SDS011;35355;49.198;-0.368;2023-02-11T07:17:57;14.15;;;7.43;;
49460;SDS011;35355;49.198;-0.368;2023-02-11T07:20:23;16.83;;;7.43;;
49460;SDS011;35355;49.198;-0.368;2023-02-11T07:22:50;19.73;;;7.05;;
49460;SDS011;35355;49.198;-0.368;2023-02-11T07:25:15;15.75;;;7.18;;
49460;SDS011;35355;49.198;-0.368;2023-02-11T07:27:40;13.40;;;7.00;;
49460;SDS011;35355;49.198;-0.368;2023-02-11T07:30:06;15.45;;;7.07;;
49460;SDS011;35355;49.198;-0.368;2023-02-11T07:32:32;15.35;;;6.45;;
49460;SDS011;35355;49.198;-0.368;2023-02-11T07:34:57;13.27;;;7.22;;
49460;SDS011;35355;49.198;-0.368;2023-02-11T07:37:23;12.63;;;5.40;;
49460;SDS011;35355;49.198;-0.368;2023-02-11T07:39:48;12.68;;;6.75;;
49460;SDS011;35355;49.198;-0.368;2023-02-11T07:42:13;14.05;;;7.53;;
49460;SDS011;35355;49.198;-0.368;2023-02-11T07:44:39;18.17;;;8.35;;
49460;SDS011;35355;49.198;-0.368;2023-02-11T07:47:04;14.43;;;7.38;;
49460;SDS011;35355;49.198;-0.368;2023-02-11T07:49:29;15.73;;;7.25;;
49460;SDS011;35355;49.198;-0.368;2023-02-11T07:51:55;13.85;;;7.03;;
49460;SDS011;35355;49.198;-0.368;2023-02-11T07:54:20;15.98;;;6.80;;
49460;SDS011;35355;49.198;-0.368;2023-02-11T07:56:46;17.75;;;8.30;;
49460;SDS011;35355;49.198;-0.368;2023-02-11T07:59:11;17.48;;;7.50;;
49460;SDS011;35355;49.198;-0.368;2023-02-11T08:01:36;13.32;;;7.10;;
49460;SDS011;35355;49.198;-0.368;2023-02-11T08:04:02;16.52;;;6.85;;
49460;SDS011;35355;49.198;-0.368;2023-02-11T08:06:29;13.05;;;7.30;;
49460;SDS011;35355;49.198;-0.368;2023-02-11T08:08:56;14.90;;;7.00;;
49460;SDS011;35355;49.198;-0.368;2023-02-11T08:11:25;14.88;;;7.28;;
49460;SDS011;35355;49.198;-0.368;2023-02-11T08:13:53;13.75;;;7.15;;
49460;SDS011;35355;49.198;-0.368;2023-02-11T08:16:27;14.55;;;7.20;;
49460;SDS011;35355;49.198;-0.368;2023-02-11T08:18:55;12.43;;;7.15;;
49460;SDS011;35355;49.198;-0.368;2023-02-11T08:21:21;14.85;;;7.95;;
49460;SDS011;35355;49.198;-0.368;2023-02-11T08:23:47;20.60;;;7.22;;
49460;SDS011;35355;49.198;-0.368;2023-02-11T08:26:17;12.98;;;7.43;;
49460;SDS011;35355;49.198;-0.368;2023-02-11T08:31:17;17.40;;;8.80;;
49460;SDS011;35355;49.198;-0.368;2023-02-11T08:33:45;17.40;;;7.60;;
49460;SDS011;35355;49.198;-0.368;2023-02-11T08:36:17;16.10;;;8.32;;
49460;SDS011;35355;49.198;-0.368;2023-02-11T08:38:44;16.90;;;8.50;;
49460;SDS011;35355;49.198;-0.368;2023-02-11T08:41:10;15.63;;;8.88;;
49460;SDS011;35355;49.198;-0.368;2023-02-11T08:43:39;20.33;;;7.22;;
49460;SDS011;35355;49.198;-0.368;2023-02-11T08:46:08;16.17;;;7.90;;
49460;SDS011;35355;49.198;-0.368;2023-02-11T08:48:37;16.00;;;7.97;;
49460;SDS011;35355;49.198;-0.368;2023-02-11T08:51:09;17.27;;;8.27;;
49460;SDS011;35355;49.198;-0.368;2023-02-11T08:53:37;14.95;;;7.70;;
49460;SDS011;35355;49.198;-0.368;2023-02-11T08:56:03;13.88;;;7.28;;
49460;SDS011;35355;49.198;-0.368;2023-02-11T08:58:29;16.40;;;7.53;;
49460;SDS011;35355;49.198;-0.368;2023-02-11T09:00:54;14.00;;;6.78;;
49460;SDS011;35355;49.198;-0.368;2023-02-11T09:03:19;14.38;;;7.22;;
49460;SDS011;35355;49.198;-0.368;2023-02-11T09:05:45;18.30;;;7.00;;
49460;SDS011;35355;49.198;-0.368;2023-02-11T09:08:12;17.88;;;8.20;;
49460;SDS011;35355;49.198;-0.368;2023-02-11T09:10:38;13.38;;;7.00;;
49460;SDS011;35355;49.198;-0.368;2023-02-11T09:13:04;16.20;;;7.97;;
49460;SDS011;35355;49.198;-0.368;2023-02-11T09:15:30;13.70;;;8.18;;
49460;SDS011;35355;49.198;-0.368;2023-02-11T09:17:56;15.63;;;8.07;;
49460;SDS011;35355;49.198;-0.368;2023-02-11T09:20:22;15.32;;;7.82;;
49460;SDS011;35355;49.198;-0.368;2023-02-11T09:22:47;17.23;;;8.05;;
49460;SDS011;35355;49.198;-0.368;2023-02-11T09:25:13;18.35;;;8.90;;
49460;SDS011;35355;49.198;-0.368;2023-02-11T09:27:38;22.55;;;8.55;;
49460;SDS011;35355;49.198;-0.368;2023-02-11T09:30:03;19.75;;;8.35;;
49460;SDS011;35355;49.198;-0.368;2023-02-11T09:32:29;16.55;;;8.90;;
49460;SDS011;35355;49.198;-0.368;2023-02-11T09:34:55;15.50;;;7.70;;
49460;SDS011;35355;49.198;-0.368;2023-02-11T09:37:20;16.33;;;8.32;;
49460;SDS011;35355;49.198;-0.368;2023-02-11T09:39:45;18.23;;;8.35;;
49460;SDS011;35355;49.198;-0.368;2023-02-11T09:44:37;16.55;;;8.20;;
49460;SDS011;35355;49.198;-0.368;2023-02-11T09:47:14;15.70;;;8.05;;
49460;SDS011;35355;49.198;-0.368;2023-02-11T09:49:49;18.55;;;8.70;;
49460;SDS011;35355;49.198;-0.368;2023-02-11T09:52:38;16.40;;;7.32;;
49460;SDS011;35355;49.198;-0.368;2023-02-11T09:58:12;20.23;;;9.68;;
49460;SDS011;35355;49.198;-0.368;2023-02-11T10:00:54;19.63;;;9.98;;
49460;SDS011;35355;49.198;-0.368;2023-02-11T10:11:51;18.60;;;9.73;;
49460;SDS011;35355;49.198;-0.368;2023-02-11T10:14:50;18.10;;;9.95;;
49460;SDS011;35355;49.198;-0.368;2023-02-11T10:17:30;20.70;;;9.10;;
49460;SDS011;35355;49.198;-0.368;2023-02-11T10:20:29;18.00;;;8.43;;
49460;SDS011;35355;49.198;-0.368;2023-02-11T10:25:38;15.27;;;8.07;;
49460;SDS011;35355;49.198;-0.368;2023-02-11T10:28:13;18.90;;;9.13;;
49460;SDS011;35355;49.198;-0.368;2023-02-11T10:30:42;15.60;;;8.55;;
49460;SDS011;35355;49.198;-0.368;2023-02-11T10:36:09;12.02;;;8.40;;
49460;SDS011;35355;49.198;-0.368;2023-02-11T10:38:37;15.32;;;9.43;;
49460;SDS011;35355;49.198;-0.368;2023-02-11T10:41:02;17.38;;;9.05;;
49460;SDS011;35355;49.198;-0.368;2023-02-11T10:43:28;16.40;;;8.75;;
49460;SDS011;35355;49.198;-0.368;2023-02-11T10:45:56;15.13;;;8.98;;
49460;SDS011;35355;49.198;-0.368;2023-02-11T10:48:35;17.58;;;8.18;;
49460;SDS011;35355;49.198;-0.368;2023-02-11T10:51:20;15.50;;;8.35;;
49460;SDS011;35355;49.198;-0.368;2023-02-11T10:56:29;14.10;;;7.68;;
49460;SDS011;35355;49.198;-0.368;2023-02-11T10:58:58;12.20;;;7.20;;
49460;SDS011;35355;49.198;-0.368;2023-02-11T11:01:45;10.40;;;6.45;;
49460;SDS011;35355;49.198;-0.368;2023-02-11T11:04:32;10.18;;;6.70;;
49460;SDS011;35355;49.198;-0.368;2023-02-11T11:07:23;11.57;;;6.38;;
49460;SDS011;35355;49.198;-0.368;2023-02-11T11:09:55;10.15;;;5.90;;
49460;SDS011;35355;49.198;-0.368;2023-02-11T11:17:35;13.30;;;6.63;;
49460;SDS011;35355;49.198;-0.368;2023-02-11T11:20:14;12.85;;;7.05;;
49460;SDS011;35355;49.198;-0.368;2023-02-11T11:22:49;13.20;;;6.95;;
49460;SDS011;35355;49.198;-0.368;2023-02-11T11:25:26;9.80;;;5.80;;
49460;SDS011;35355;49.198;-0.368;2023-02-11T11:27:55;10.75;;;5.80;;
49460;SDS011;35355;49.198;-0.368;2023-02-11T11:30:24;13.65;;;6.32;;
49460;SDS011;35355;49.198;-0.368;2023-02-11T11:32:55;8.73;;;5.35;;
49460;SDS011;35355;49.198;-0.368;2023-02-11T11:35:24;8.10;;;4.93;;
49460;SDS011;35355;49.198;-0.368;2023-02-11T11:37:53;6.63;;;4.80;;
49460;SDS011;35355;49.198;-0.368;2023-02-11T11:40:22;10.50;;;6.22;;
49460;SDS011;35355;49.198;-0.368;2023-02-11T11:43:00;11.15;;;5.65;;
49460;SDS011;35355;49.198;-0.368;2023-02-11T11:45:39;8.82;;;4.97;;
49460;SDS011;35355;49.198;-0.368;2023-02-11T11:48:20;10.30;;;5.05;;
49460;SDS011;35355;49.198;-0.368;2023-02-11T11:50:52;7.40;;;5.07;;
49460;SDS011;35355;49.198;-0.368;2023-02-11T11:53:28;9.35;;;4.88;;
49460;SDS011;35355;49.198;-0.368;2023-02-11T11:56:15;11.57;;;5.93;;
49460;SDS011;35355;49.198;-0.368;2023-02-11T11:58:43;10.70;;;5.35;;
49460;SDS011;35355;49.198;-0.368;2023-02-11T12:12:53;13.07;;;7.45;;
49460;SDS011;35355;49.198;-0.368;2023-02-11T12:29:21;14.05;;;7.43;;
49460;SDS011;35355;49.198;-0.368;2023-02-11T12:42:54;16.08;;;8.43;;
49460;SDS011;35355;49.198;-0.368;2023-02-11T12:54:38;13.48;;;7.78;;
49460;SDS011;35355;49.198;-0.368;2023-02-11T12:57:21;10.65;;;7.13;;
49460;SDS011;35355;49.198;-0.368;2023-02-11T13:05:19;11.60;;;6.60;;
49460;SDS011;35355;49.198;-0.368;2023-02-11T13:07:53;12.43;;;6.35;;
49460;SDS011;35355;49.198;-0.368;2023-02-11T13:10:36;9.65;;;6.15;;
49460;SDS011;35355;49.198;-0.368;2023-02-11T13:13:41;8.48;;;5.35;;
49460;SDS011;35355;49.198;-0.368;2023-02-11T13:19:11;10.13;;;4.85;;
49460;SDS011;35355;49.198;-0.368;2023-02-11T13:22:04;10.77;;;5.82;;
49460;SDS011;35355;49.198;-0.368;2023-02-11T13:24:50;9.05;;;5.78;;
49460;SDS011;35355;49.198;-0.368;2023-02-11T13:37:55;9.07;;;4.32;;
49460;SDS011;35355;49.198;-0.368;2023-02-11T13:40:26;6.78;;;3.72;;
49460;SDS011;35355;49.198;-0.368;2023-02-11T13:42:56;6.30;;;3.47;;
49460;SDS011;35355;49.198;-0.368;2023-02-11T13:50:50;5.47;;;3.10;;
49460;SDS011;35355;49.198;-0.368;2023-02-11T13:53:21;5.95;;;3.25;;
49460;SDS011;35355;49.198;-0.368;2023-02-11T13:55:51;6.78;;;3.95;;
49460;SDS011;35355;49.198;-0.368;2023-02-11T13:58:48;6.55;;;3.65;;
49460;SDS011;35355;49.198;-0.368;2023-02-11T14:24:57;5.55;;;2.67;;
49460;SDS011;35355;49.198;-0.368;2023-02-11T14:41:13;4.05;;;2.53;;
49460;SDS011;35355;49.198;-0.368;2023-02-11T14:43:48;5.25;;;2.90;;
49460;SDS011;35355;49.198;-0.368;2023-02-11T14:46:20;5.00;;;2.30;;
49460;SDS011;35355;49.198;-0.368;2023-02-11T14:48:49;6.40;;;2.35;;
49460;SDS011;35355;49.198;-0.368;2023-02-11T14:51:19;6.88;;;2.95;;
49460;SDS011;35355;49.198;-0.368;2023-02-11T14:53:57;5.60;;;2.75;;
49460;SDS011;35355;49.198;-0.368;2023-02-11T14:56:29;6.30;;;3.10;;
49460;SDS011;35355;49.198;-0.368;2023-02-11T14:58:55;4.85;;;2.67;;
49460;SDS011;35355;49.198;-0.368;2023-02-11T15:01:38;5.43;;;3.20;;
49460;SDS011;35355;49.198;-0.368;2023-02-11T15:04:13;4.05;;;2.47;;
49460;SDS011;35355;49.198;-0.368;2023-02-11T15:06:48;6.00;;;3.67;;
49460;SDS011;35355;49.198;-0.368;2023-02-11T15:12:04;4.97;;;2.45;;
49460;SDS011;35355;49.198;-0.368;2023-02-11T15:14:43;5.45;;;3.25;;
49460;SDS011;35355;49.198;-0.368;2023-02-11T15:17:12;8.38;;;3.47;;
49460;SDS011;35355;49.198;-0.368;2023-02-11T15:19:43;8.07;;;4.03;;
49460;SDS011;35355;49.198;-0.368;2023-02-11T15:22:16;6.53;;;3.67;;
49460;SDS011;35355;49.198;-0.368;2023-02-11T15:27:41;6.50;;;3.72;;
49460;SDS011;35355;49.198;-0.368;2023-02-11T15:32:52;4.95;;;3.30;;
49460;SDS011;35355;49.198;-0.368;2023-02-11T15:35:23;6.05;;;3.28;;
49460;SDS011;35355;49.198;-0.368;2023-02-11T15:37:52;7.43;;;3.90;;
49460;SDS011;35355;49.198;-0.368;2023-02-11T15:40:20;7.07;;;4.32;;
49460;SDS011;35355;49.198;-0.368;2023-02-11T15:43:00;6.75;;;3.78;;
49460;SDS011;35355;49.198;-0.368;2023-02-11T15:45:29;7.65;;;3.83;;
49460;SDS011;35355;49.198;-0.368;2023-02-11T15:48:04;5.25;;;4.07;;
49460;SDS011;35355;49.198;-0.368;2023-02-11T15:50:36;6.05;;;3.80;;
49460;SDS011;35355;49.198;-0.368;2023-02-11T15:56:24;6.22;;;3.60;;
49460;SDS011;35355;49.198;-0.368;2023-02-11T15:58:57;6.70;;;4.15;;
49460;SDS011;35355;49.198;-0.368;2023-02-11T16:01:31;8.15;;;4.50;;
49460;SDS011;35355;49.198;-0.368;2023-02-11T16:03:58;9.32;;;4.45;;
49460;SDS011;35355;49.198;-0.368;2023-02-11T16:06:37;9.75;;;4.70;;
49460;SDS011;35355;49.198;-0.368;2023-02-11T16:11:30;9.50;;;5.97;;
49460;SDS011;35355;49.198;-0.368;2023-02-11T16:13:59;8.30;;;5.10;;
49460;SDS011;35355;49.198;-0.368;2023-02-11T16:16:29;7.85;;;4.78;;
49460;SDS011;35355;49.198;-0.368;2023-02-11T16:19:00;7.43;;;5.03;;
49460;SDS011;35355;49.198;-0.368;2023-02-11T16:21:36;14.00;;;7.53;;
49460;SDS011;35355;49.198;-0.368;2023-02-11T16:24:07;17.05;;;9.07;;
49460;SDS011;35355;49.198;-0.368;2023-02-11T16:26:45;19.33;;;11.68;;
49460;SDS011;35355;49.198;-0.368;2023-02-11T16:29:16;15.45;;;8.38;;
49460;SDS011;35355;49.198;-0.368;2023-02-11T16:34:13;16.67;;;8.95;;
49460;SDS011;35355;49.198;-0.368;2023-02-11T16:36:41;18.10;;;9.32;;
49460;SDS011;35355;49.198;-0.368;2023-02-11T16:39:06;16.65;;;10.48;;
49460;SDS011;35355;49.198;-0.368;2023-02-11T16:41:32;20.15;;;11.45;;
49460;SDS011;35355;49.198;-0.368;2023-02-11T16:43:57;23.75;;;11.85;;
49460;SDS011;35355;49.198;-0.368;2023-02-11T16:46:23;19.42;;;11.75;;
49460;SDS011;35355;49.198;-0.368;2023-02-11T16:48:48;22.20;;;12.02;;
49460;SDS011;35355;49.198;-0.368;2023-02-11T16:51:14;24.38;;;12.95;;
49460;SDS011;35355;49.198;-0.368;2023-02-11T16:53:39;20.75;;;11.52;;
49460;SDS011;35355;49.198;-0.368;2023-02-11T16:56:04;17.38;;;10.20;;
49460;SDS011;35355;49.198;-0.368;2023-02-11T16:58:30;20.05;;;11.10;;
49460;SDS011;35355;49.198;-0.368;2023-02-11T17:00:55;21.85;;;10.15;;
49460;SDS011;35355;49.198;-0.368;2023-02-11T17:03:22;19.88;;;10.23;;
49460;SDS011;35355;49.198;-0.368;2023-02-11T17:05:50;22.40;;;11.60;;
49460;SDS011;35355;49.198;-0.368;2023-02-11T17:08:17;24.35;;;12.23;;
49460;SDS011;35355;49.198;-0.368;2023-02-11T17:10:42;23.20;;;13.40;;
49460;SDS011;35355;49.198;-0.368;2023-02-11T17:13:08;20.80;;;11.93;;
49460;SDS011;35355;49.198;-0.368;2023-02-11T17:15:33;25.52;;;11.65;;
49460;SDS011;35355;49.198;-0.368;2023-02-11T17:18:00;21.95;;;11.02;;
49460;SDS011;35355;49.198;-0.368;2023-02-11T17:20:26;21.58;;;11.93;;
49460;SDS011;35355;49.198;-0.368;2023-02-11T17:22:52;19.15;;;10.30;;
49460;SDS011;35355;49.198;-0.368;2023-02-11T17:25:17;17.65;;;10.20;;
49460;SDS011;35355;49.198;-0.368;2023-02-11T17:27:43;22.73;;;11.52;;
49460;SDS011;35355;49.198;-0.368;2023-02-11T17:30:09;18.15;;;10.07;;
49460;SDS011;35355;49.198;-0.368;2023-02-11T17:32:35;17.60;;;9.93;;
49460;SDS011;35355;49.198;-0.368;2023-02-11T17:35:01;16.02;;;8.55;;
49460;SDS011;35355;49.198;-0.368;2023-02-11T17:37:27;17.42;;;8.70;;
49460;SDS011;35355;49.198;-0.368;2023-02-11T17:39:52;19.00;;;8.80;;
49460;SDS011;35355;49.198;-0.368;2023-02-11T17:42:18;18.92;;;8.90;;
49460;SDS011;35355;49.198;-0.368;2023-02-11T17:44:43;17.42;;;9.43;;
49460;SDS011;35355;49.198;-0.368;2023-02-11T17:47:09;22.95;;;9.85;;
49460;SDS011;35355;49.198;-0.368;2023-02-11T17:49:35;19.38;;;9.48;;
49460;SDS011;35355;49.198;-0.368;2023-02-11T17:52:00;21.67;;;10.57;;
49460;SDS011;35355;49.198;-0.368;2023-02-11T17:54:25;22.08;;;9.35;;
49460;SDS011;35355;49.198;-0.368;2023-02-11T17:56:51;24.83;;;10.10;;
49460;SDS011;35355;49.198;-0.368;2023-02-11T17:59:18;21.60;;;11.45;;
49460;SDS011;35355;49.198;-0.368;2023-02-11T18:01:44;21.50;;;11.23;;
49460;SDS011;35355;49.198;-0.368;2023-02-11T18:04:14;25.02;;;11.65;;
49460;SDS011;35355;49.198;-0.368;2023-02-11T18:06:41;20.52;;;10.70;;
49460;SDS011;35355;49.198;-0.368;2023-02-11T18:09:07;22.88;;;10.52;;
49460;SDS011;35355;49.198;-0.368;2023-02-11T18:11:32;28.02;;;11.68;;
49460;SDS011;35355;49.198;-0.368;2023-02-11T18:14:00;27.42;;;11.50;;